Terminal Aerodrome Forecast
Issued by NWS

Home | Current Version | Previous Version | Graphics & Text | Print | Product List | Glossary On
Versions: 1 2 3 4 5 6 7 8 9 10 11 12 13 14 15 16 17 18 19 20 21 22 23 24 25 26 27 28 29 30 31
521
FTUS43 KLOT 211740
TAFORD
TAF
KORD 211740Z 2118/2224 15004KT 3SM BR OVC004
      TEMPO 2118/2119 1SM -DZ BR OVC003
     FM211900 10004KT 1 1/2SM -DZ BR OVC003
      TEMPO 2121/2201 3/4SM -DZ BR
     FM220100 11004KT 1SM -SHRA BR OVC003
      TEMPO 2201/2205 3/4SM -SHRA BR
     FM220900 12007KT 1SM SHRA BR OVC004 PROB30 2209/2215 -TSRA BR
      OVC003CB
     FM221900 17012G18KT 2SM -SHRA BR OVC006=

USA.gov is the U.S. government's official web portal to all federal, state and local government web resources and services.